Latest Coastal Weather Observations for Cape Borda

IDT60701

Issued at 6:12 pm EST Monday 25 July 2016 (issued every 10 minutes, with the page automatically refreshed every 10 minutes)

About coastal observations | Map of coastal stations | Coastal observations for TAS | Marine services | Other Formats
Station Details ID: 022823 Name: CAPE BORDA Lat: -35.75 Lon: 136.60 Height: 158.0 m
Data from the previous 72 hours. | See also: Recent months at Cape Borda
Date/Time
EST
Temp
°C
Wind Pressure Rain since
9am
mm
Weather Cloud Vis
km
Sea
Height
m
Swell
Dir  Spd
kts
Gust
kts
hPa Trend Height
m
Period
s
Dir
25/06:00pm 9.3 SW 19 32 1012.8 - 2.0 - - - - - - -
25/05:30pm 10.5 WSW 24 35 1012.3 - 2.0 - - - - - - -
25/05:00pm 10.7 WSW 22 34 1012.0 - 2.0 - - - - - - -
25/04:30pm 10.7 WSW 21 33 1011.7 - 2.0 - - - - - - -
25/04:00pm 11.1 WSW 26 40 1011.1 - 2.0 - - - - - - -
25/03:32pm 10.8 WSW 22 32 1011.0 - 2.0 - - - - - - -
25/03:30pm 11.1 WSW 21 30 1011.0 R 2.0 Drizzle Cloudy 7 5 - - SW
25/03:00pm 11.1 WSW 26 39 1010.7 - 2.0 - - - - - - -
25/02:30pm 10.3 SW 25 37 1010.6 - 2.0 - - - - - - -
25/02:00pm 10.3 SW 23 34 1010.1 - 1.8 - - - - - - -
25/01:39pm 10.7 WSW 23 37 1010.1 - 1.6 - - - - - - -
25/01:30pm 10.5 WSW 24 32 1010.1 - 1.6 - - - - - - -
25/01:19pm 10.5 SW 23 30 1010.1 - 1.4 - - - - - - -
25/01:00pm 10.7 W 27 41 1010.0 - 1.4 - - - - - - -
25/12:50pm 11.1 WSW 29 44 1010.1 - 1.0 - - - - - - -
25/12:30pm 12.9 W 29 40 1010.1 - 1.0 - - - - - - -
25/12:00pm 13.0 W 30 42 1010.1 - 0.6 - - - - - - -
25/11:30am 12.7 WNW 26 39 1010.2 - 0.2 - - - - - - -
25/11:00am 13.2 WNW 23 35 1010.5 - 0.0 - - - - - - -
25/10:30am 12.7 WNW 23 35 1010.9 - 0.0 - - - - - - -
25/10:03am 12.8 WNW 22 32 1011.1 - 0.0 - - - - - - -
25/10:00am 12.6 WNW 23 32 1011.0 - 0.0 - - - - - - -
25/09:41am 11.8 WNW 23 34 1011.2 - 0.0 - - - - - - -
25/09:30am 11.0 WNW 24 32 1011.6 - 7.2 Fine Mostly cloudy 5 5 - - SW
25/09:08am 11.0 WNW 21 31 1011.4 - 7.2 - - - - - - -
25/09:00am 10.8 WNW 22 31 1011.5 - 7.2 - - - - - - -
25/08:30am 11.1 WNW 21 33 1011.9 - 6.8 - - - - - - -
25/08:09am 12.2 WNW 21 31 1012.0 - 6.4 - - - - - - -
25/08:00am 12.1 WNW 21 29 1012.0 - 6.4 - - - - - - -
25/07:30am 11.9 WNW 20 29 1012.0 - 6.4 - - - - - - -
25/07:00am 11.8 WNW 22 29 1012.1 - 6.4 - - - - - - -
25/06:30am 11.5 WNW 21 29 1012.4 - 6.4 - - - - - - -
25/06:00am 11.2 W 21 31 1012.5 - 6.4 - - - - - - -
25/05:32am 11.2 W 21 32 1012.5 - 6.4 - - - - - - -
25/05:30am 11.2 W 21 29 1012.4 - 6.4 - - - - - - -
25/05:18am 10.7 W 20 30 1012.6 - 6.4 - - - - - - -
25/05:00am 10.7 W 21 30 1012.8 - 6.4 - - - - - - -
25/04:36am 10.2 W 19 29 1012.8 - 6.4 - - - - - - -
25/04:30am 10.7 W 19 26 1012.8 - 6.4 - - - - - - -
25/04:00am 10.2 W 22 29 1013.1 - 6.4 - - - - - - -
25/03:30am 10.5 W 18 35 1013.4 - 6.2 - - - - - - -
25/03:00am 9.9 W 22 32 1013.3 - 6.2 - - - - - - -
25/02:53am 11.1 W 19 29 1013.2 - 6.0 - - - - - - -
25/02:30am 10.7 W 18 25 1013.3 - 6.0 - - - - - - -
25/02:00am 10.5 WSW 19 27 1013.3 - 6.0 - - - - - - -
25/01:39am 9.9 W 15 25 1013.4 - 6.0 - - - - - - -
25/01:30am 9.4 W 13 18 1013.4 - 6.0 - - - - - - -
25/01:01am 10.0 SW 15 25 1013.4 - 5.6 - - - - - - -
25/01:00am 9.7 SW 15 22 1013.5 - 5.6 - - - - - - -
25/12:30am 9.1 W 17 27 1013.7 - 5.6 - - - - - - -
25/12:24am 9.5 W 21 27 1013.5 - 5.6 - - - - - - -
25/12:00am 10.4 SW 19 29 1013.1 - 5.4 - - - - - - -
 
Date/Time
EST
Temp
°C
Wind Pressure Rain since
9am
mm
Weather Cloud Vis
km
Sea
Height
m
Swell
Dir  Spd
kts
Gust
kts
hPa Trend Height
m
Period
s
Dir
24/11:31pm 10.7 SW 21 31 1012.9 - 5.4 - - - - - - -
24/11:30pm 10.7 SW 21 29 1012.9 - 5.4 - - - - - - -
24/11:05pm 10.0 SW 20 30 1012.6 - 5.4 - - - - - - -
24/11:00pm 10.3 SW 21 30 1012.6 - 5.4 - - - - - - -
24/10:30pm 8.7 SW 22 33 1012.4 - 5.4 - - - - - - -
24/10:00pm 9.7 SW 21 32 1011.8 - 5.2 - - - - - - -
24/09:30pm 10.0 WSW 22 33 1011.9 - 5.2 - - - - - - -
24/09:04pm 10.1 WSW 23 33 1011.2 - 5.2 - - - - - - -
24/09:00pm 10.4 WSW 24 33 1011.1 - 5.2 - - - - - - -
24/08:34pm 10.7 WSW 23 33 1010.6 - 5.2 - - - - - - -
24/08:30pm 10.5 WSW 24 33 1010.5 - 5.2 - - - - - - -
24/08:00pm 9.6 SW 23 33 1010.2 - 5.2 - - - - - - -
24/07:30pm 10.8 WSW 25 39 1009.4 - 5.0 - - - - - - -
24/07:00pm 10.8 WSW 29 40 1008.8 - 5.0 - - - - - - -
24/06:30pm 9.8 WSW 29 43 1008.2 - 5.0 - - - - - - -
24/06:00pm 10.3 WSW 31 43 1007.5 - 4.6 - - - - - - -
24/05:40pm 10.0 W 27 50 1006.7 - 4.0 - - - - - - -
24/05:30pm 10.5 WSW 27 39 1006.8 - 3.8 - - - - - - -
24/05:00pm 11.0 WSW 32 43 1006.1 - 3.8 - - - - - - -
24/04:30pm 10.6 W 29 43 1005.6 - 3.8 - - - - - - -
24/04:20pm 10.6 W 33 45 1005.3 - 3.6 - - - - - - -
24/04:00pm 9.6 WSW 27 40 1005.2 - 3.6 - - - - - - -
24/03:52pm 9.4 WSW 26 37 1005.0 - 3.6 - - - - - - -
24/03:51pm 9.3 WSW 25 31 1004.9 - 3.6 - - - - - - -
24/03:47pm 9.2 WSW 35 46 1004.9 - 3.2 - - - - - - -
24/03:39pm 10.0 W 32 51 1004.4 - 2.6 - - - - - - -
24/03:30pm 11.6 W 29 41 1004.5 R 2.6 - - - - - - -
24/03:00pm 10.0 W 33 46 1004.1 - 2.6 - - - - - - -
24/02:30pm 10.3 W 28 38 1004.3 - 1.8 - - - - - - -
24/02:00pm 9.6 W 26 39 1004.7 - 1.6 - - - - - - -
24/01:30pm 9.4 W 25 41 1005.0 - 0.6 - - - - - - -
24/01:00pm 11.4 W 23 35 1005.3 - 0.6 - - - - - - -
24/12:30pm 11.1 W 23 33 1005.4 - 0.6 - - - - - - -
24/12:16pm 10.4 W 21 33 1005.7 - 0.6 - - - - - - -
24/12:00pm 9.0 W 19 28 1005.8 - 0.6 - - - - - - -
24/11:30am 10.6 W 24 34 1005.7 - 0.4 - - - - - - -
24/11:14am 9.8 W 26 44 1005.4 - 0.4 - - - - - - -
24/11:00am 11.2 W 22 33 1005.4 - 0.4 - - - - - - -
24/10:30am 9.4 W 22 33 1005.1 - 0.2 - - - - - - -
24/10:00am 9.1 WSW 22 40 1004.7 - 0.0 - - - - - - -
24/09:30am 9.4 W 21 32 1004.3 F 16.2 Rain Cloudy 10 5 - - SW
24/09:00am 8.2 W 23 34 1004.0 - 15.8 - - - - - - -
24/08:56am 9.4 W 21 31 1004.1 - 15.6 - - - - - - -
24/08:30am 8.5 W 14 21 1003.5 - 15.6 - - - - - - -
24/08:10am 8.1 W 18 29 1004.3 - 15.4 - - - - - - -
24/08:00am 7.7 W 17 25 1004.1 - 15.2 - - - - - - -
24/07:30am 7.3 W 27 38 1003.5 - 14.4 - - - - - - -
24/07:12am 8.4 W 30 45 1002.9 - 14.2 - - - - - - -
24/07:03am 9.0 W 24 35 1002.7 - 14.0 - - - - - - -
24/07:00am 9.0 W 24 32 1002.7 - 14.0 - - - - - - -
24/06:53am 9.1 W 25 32 1002.7 - 13.8 - - - - - - -
24/06:46am 9.6 WNW 22 32 1003.0 - 13.6 - - - - - - -
24/06:45am 9.4 WNW 21 30 1003.1 - 13.0 - - - - - - -
24/06:30am 8.5 NNW 21 35 1003.6 - 9.8 - - - - - - -
24/06:00am 10.8 NW 25 35 1003.7 - 7.0 - - - - - - -
24/05:38am 9.9 NNW 19 32 1003.8 - 6.4 - - - - - - -
24/05:30am 10.4 NNW 15 23 1004.1 - 5.4 - - - - - - -
24/05:02am 10.1 NNW 15 25 1004.8 - 5.4 - - - - - - -
24/05:00am 10.0 NNW 17 25 1004.8 - 5.4 - - - - - - -
24/04:30am 9.9 N 19 28 1005.5 - 4.8 - - - - - - -
24/04:01am 9.7 NNW 21 32 1006.2 - 4.6 - - - - - - -
24/04:00am 9.9 NNW 21 30 1006.3 - 4.4 - - - - - - -
24/03:30am 10.2 NNW 20 31 1007.2 - 3.8 - - - - - - -
24/03:06am 10.3 NNW 19 32 1007.6 - 3.2 - - - - - - -
24/03:00am 10.5 NNW 18 26 1007.7 - 3.2 - - - - - - -
24/02:30am 10.0 NNW 17 25 1008.4 - 3.2 - - - - - - -
24/02:00am 10.5 NNW 16 23 1009.0 - 2.4 - - - - - - -
24/01:30am 10.2 NNW 15 25 1009.6 - 2.4 - - - - - - -
24/01:27am 10.1 NNW 15 25 1009.7 - 2.4 - - - - - - -
24/01:00am 9.7 NNW 14 19 1010.3 - 2.4 - - - - - - -
24/12:30am 9.9 NNW 15 22 1011.2 - 2.4 - - - - - - -
24/12:00am 9.1 NNW 11 20 1011.4 - 2.2 - - - - - - -
 
Date/Time
EST
Temp
°C
Wind Pressure Rain since
9am
mm
Weather Cloud Vis
km
Sea
Height
m
Swell
Dir  Spd
kts
Gust
kts
hPa Trend Height
m
Period
s
Dir
23/11:30pm 9.4 NNW 15 19 1012.0 - 1.6 - - - - - - -
23/11:00pm 9.8 NW 13 20 1012.4 - 1.6 - - - - - - -
23/10:30pm 9.4 NW 10 14 1012.7 - 1.6 - - - - - - -
23/10:00pm 10.1 NW 10 16 1012.7 - 1.6 - - - - - - -
23/09:30pm 9.3 WNW 9 13 1013.1 - 1.6 - - - - - - -
23/09:00pm 9.6 NW 13 19 1013.3 - 1.6 - - - - - - -
23/08:30pm 8.1 SW 7 9 1013.6 - 1.6 - - - - - - -
23/08:00pm 9.0 WNW 13 17 1013.7 - 1.6 - - - - - - -
23/07:30pm 8.3 W 7 9 1013.5 - 1.6 - - - - - - -
23/07:00pm 8.1 WSW 10 14 1013.7 - 1.6 - - - - - - -
23/06:30pm 9.4 NW 10 15 1013.7 - 1.0 - - - - - - -
23/06:00pm 9.7 W 9 15 1013.4 - 1.0 - - - - - - -
23/05:30pm 10.0 W 11 19 1013.4 - 1.0 - - - - - - -
23/05:00pm 10.7 WSW 11 19 1013.5 - 1.0 - - - - - - -
23/04:30pm 11.0 WSW 10 16 1013.6 - 1.0 - - - - - - -
23/04:00pm 11.5 WSW 11 17 1013.5 - 1.0 - - - - - - -
23/03:30pm 11.2 W 14 19 1013.8 R 1.0 Fine Partly cloudy 20 1 - - SW
23/03:00pm 11.0 WSW 11 17 1013.5 - 1.0 - - - - - - -
23/02:30pm 10.2 SW 12 17 1013.7 - 1.0 - - - - - - -
23/02:00pm 10.8 SSW 13 17 1013.7 - 1.0 - - - - - - -
23/01:30pm 9.8 WSW 13 20 1013.9 - 1.0 - - - - - - -
23/01:19pm 10.1 WSW 15 25 1014.0 - 1.0 - - - - - - -
23/01:00pm 10.2 SW 10 14 1014.4 - 1.0 - - - - - - -
23/12:30pm 8.8 W 12 19 1014.8 - 1.0 - - - - - - -
23/12:00pm 9.3 SW 12 17 1014.9 - 0.4 - - - - - - -
23/11:30am 10.1 SW 11 13 1014.7 - 0.0 - - - - - - -
23/11:00am 10.0 SW 14 22 1014.6 - 0.0 - - - - - - -
23/10:30am 10.4 SW 11 15 1014.4 - 0.0 - - - - - - -
23/10:00am 10.1 SW 14 23 1013.9 - 0.0 - - - - - - -
23/09:30am 9.1 SSW 10 16 1013.6 R 5.6 Fine Mostly cloudy 15 2 - - SW
23/09:00am 9.3 SSW 11 19 1013.0 - 5.6 - - - - - - -
23/08:30am 7.1 S 9 15 1012.8 - 5.6 - - - - - - -
23/08:00am 7.7 S 11 16 1012.5 - 5.6 - - - - - - -
23/07:30am 7.2 S 11 16 1012.0 - 5.6 - - - - - - -
23/07:00am 7.5 S 11 17 1011.6 - 5.6 - - - - - - -
23/06:30am 8.5 SSW 14 20 1011.3 - 5.0 - - - - - - -
23/06:00am 8.1 S 12 18 1010.8 - 5.0 - - - - - - -
23/05:30am 8.1 SSW 14 20 1010.5 - 5.0 - - - - - - -
23/05:00am 7.9 S 13 19 1009.9 - 5.0 - - - - - - -
23/04:43am 8.5 SSW 16 26 1009.8 - 4.8 - - - - - - -
23/04:30am 9.3 SSW 16 23 1009.6 - 4.2 - - - - - - -
23/04:29am 9.3 SSW 16 26 1009.6 - 4.2 - - - - - - -
23/04:00am 8.9 SSW 15 21 1009.3 - 4.2 - - - - - - -
23/03:30am 8.9 SSW 15 29 1009.0 - 4.2 - - - - - - -
23/03:00am 9.0 SSW 15 21 1008.6 - 4.0 - - - - - - -
23/02:30am 8.4 SW 17 27 1008.4 - 4.0 - - - - - - -
23/02:23am 9.4 SW 16 27 1008.2 - 3.8 - - - - - - -
23/02:00am 8.8 SW 15 21 1008.0 - 3.8 - - - - - - -
23/01:46am 9.2 SW 16 27 1007.9 - 3.8 - - - - - - -
23/01:30am 9.5 SSW 16 24 1007.5 - 3.8 - - - - - - -
23/01:00am 9.4 SSW 18 24 1007.0 - 3.8 - - - - - - -
23/12:55am 9.7 SW 16 26 1007.0 - 3.8 - - - - - - -
23/12:30am 8.9 SW 18 25 1006.9 - 3.8 - - - - - - -
23/12:00am 8.0 SW 22 34 1006.3 - 3.8 - - - - - - -
 
Date/Time
EST
Temp
°C
Wind Pressure Rain since
9am
mm
Weather Cloud Vis
km
Sea
Height
m
Swell
Dir  Spd
kts
Gust
kts
hPa Trend Height
m
Period
s
Dir
22/11:46pm 9.1 SW 18 30 1006.1 - 3.6 - - - - - - -
22/11:30pm 9.0 SW 19 28 1005.8 - 3.6 - - - - - - -
22/11:00pm 8.4 WSW 23 40 1005.2 - 3.0 - - - - - - -
22/10:34pm 10.2 WSW 23 33 1004.5 - 2.8 - - - - - - -
22/10:30pm 10.1 WSW 24 32 1004.5 - 2.8 - - - - - - -
22/10:00pm 9.8 WSW 26 37 1003.9 - 2.8 - - - - - - -
22/09:30pm 9.3 WSW 27 42 1003.1 - 2.8 - - - - - - -
22/09:00pm 7.5 WSW 31 50 1002.7 - 2.6 - - - - - - -
22/08:57pm 9.3 WSW 27 50 1002.6 - 2.2 - - - - - - -
22/08:56pm 10.6 W 23 29 1002.6 - 2.0 - - - - - - -
22/08:42pm 9.4 SW 28 39 1002.0 - 2.0 - - - - - - -
22/08:30pm 10.9 W 30 46 1001.7 - 2.0 - - - - - - -
22/08:00pm 11.1 W 31 43 1001.0 - 2.0 - - - - - - -
22/07:30pm 10.6 W 31 45 1000.6 - 2.0 - - - - - - -
22/07:00pm 10.3 W 33 47 1000.1 - 2.0 - - - - - - -

Other Formats:

Comma delimited format used in spreadsheet applications
http://www.bom.gov.au/fwo/IDT60701/IDT60701.95805.axf

JavaScript Object Notation format (JSON) in row-major order
http://www.bom.gov.au/fwo/IDT60701/IDT60701.95805.json